sensor_id;sensor_type;location;lat;lon;timestamp;pressure;altitude;pressure_sealevel;temperature;humidity
6132;BME280;3097;42.692;23.278;2023-04-20T00:01:52;94661.34;;;11.12;79.84
6132;BME280;3097;42.692;23.278;2023-04-20T00:04:18;94632.03;;;10.90;79.87
6132;BME280;3097;42.692;23.278;2023-04-20T00:06:43;94658.22;;;11.10;79.99
6132;BME280;3097;42.692;23.278;2023-04-20T00:09:12;94661.25;;;11.07;80.44
6132;BME280;3097;42.692;23.278;2023-04-20T00:11:38;94655.41;;;11.12;80.46
6132;BME280;3097;42.692;23.278;2023-04-20T00:14:04;94647.91;;;11.10;80.45
6132;BME280;3097;42.692;23.278;2023-04-20T00:16:30;94638.63;;;10.98;80.40
6132;BME280;3097;42.692;23.278;2023-04-20T00:18:55;94618.47;;;10.95;80.56
6132;BME280;3097;42.692;23.278;2023-04-20T00:21:21;94615.53;;;10.91;80.51
6132;BME280;3097;42.692;23.278;2023-04-20T00:23:49;94637.38;;;11.00;80.87
6132;BME280;3097;42.692;23.278;2023-04-20T00:26:15;94654.63;;;11.11;80.67
6132;BME280;3097;42.692;23.278;2023-04-20T00:28:41;94624.41;;;10.95;80.75
6132;BME280;3097;42.692;23.278;2023-04-20T00:31:06;94649.22;;;11.13;80.61
6132;BME280;3097;42.692;23.278;2023-04-20T00:33:32;94649.22;;;11.13;80.70
6132;BME280;3097;42.692;23.278;2023-04-20T00:35:57;94644.53;;;11.10;80.75
6132;BME280;3097;42.692;23.278;2023-04-20T00:38:23;94653.16;;;11.15;80.85
6132;BME280;3097;42.692;23.278;2023-04-20T00:40:48;94628.06;;;10.99;80.81
6132;BME280;3097;42.692;23.278;2023-04-20T00:43:18;94646.88;;;11.11;80.93
6132;BME280;3097;42.692;23.278;2023-04-20T00:45:45;94649.47;;;11.11;80.28
6132;BME280;3097;42.692;23.278;2023-04-20T00:48:10;94648.22;;;11.14;80.33
6132;BME280;3097;42.692;23.278;2023-04-20T00:50:37;94645.31;;;11.10;80.32
6132;BME280;3097;42.692;23.278;2023-04-20T00:53:03;94640.03;;;11.05;79.66
6132;BME280;3097;42.692;23.278;2023-04-20T00:55:30;94644.56;;;10.98;80.61
6132;BME280;3097;42.692;23.278;2023-04-20T00:57:56;94643.00;;;10.97;80.59
6132;BME280;3097;42.692;23.278;2023-04-20T01:00:21;94617.59;;;10.77;80.41
6132;BME280;3097;42.692;23.278;2023-04-20T01:02:47;94634.72;;;10.95;80.60
6132;BME280;3097;42.692;23.278;2023-04-20T01:05:13;94622.75;;;10.77;80.74
6132;BME280;3097;42.692;23.278;2023-04-20T01:07:38;94646.25;;;10.93;80.46
6132;BME280;3097;42.692;23.278;2023-04-20T01:10:06;94623.31;;;10.68;80.79
6132;BME280;3097;42.692;23.278;2023-04-20T01:12:31;94629.28;;;10.68;81.81
6132;BME280;3097;42.692;23.278;2023-04-20T01:14:57;94637.13;;;10.73;81.97
6132;BME280;3097;42.692;23.278;2023-04-20T01:17:22;94639.25;;;10.65;81.91
6132;BME280;3097;42.692;23.278;2023-04-20T01:19:48;94638.69;;;10.63;82.42
6132;BME280;3097;42.692;23.278;2023-04-20T01:22:18;94640.41;;;10.57;82.65
6132;BME280;3097;42.692;23.278;2023-04-20T01:24:44;94637.34;;;10.60;82.94
6132;BME280;3097;42.692;23.278;2023-04-20T01:27:11;94613.84;;;10.45;83.04
6132;BME280;3097;42.692;23.278;2023-04-20T01:29:36;94611.38;;;10.38;82.60
6132;BME280;3097;42.692;23.278;2023-04-20T01:32:02;94611.50;;;10.43;82.92
6132;BME280;3097;42.692;23.278;2023-04-20T01:34:28;94626.06;;;10.50;83.36
6132;BME280;3097;42.692;23.278;2023-04-20T01:36:53;94625.50;;;10.59;83.08
6132;BME280;3097;42.692;23.278;2023-04-20T01:39:19;94610.03;;;10.47;82.47
6132;BME280;3097;42.692;23.278;2023-04-20T01:41:45;94622.59;;;10.56;82.84
6132;BME280;3097;42.692;23.278;2023-04-20T01:44:10;94619.13;;;10.50;83.42
6132;BME280;3097;42.692;23.278;2023-04-20T01:46:37;94617.66;;;10.54;83.82
6132;BME280;3097;42.692;23.278;2023-04-20T01:49:04;94587.66;;;10.36;83.96
6132;BME280;3097;42.692;23.278;2023-04-20T01:51:29;94615.19;;;10.59;83.84
6132;BME280;3097;42.692;23.278;2023-04-20T01:53:55;94608.69;;;10.57;83.82
6132;BME280;3097;42.692;23.278;2023-04-20T01:56:20;94598.81;;;10.54;83.43
6132;BME280;3097;42.692;23.278;2023-04-20T01:58:46;94609.78;;;10.61;83.55
6132;BME280;3097;42.692;23.278;2023-04-20T02:01:11;94616.06;;;10.65;83.66
6132;BME280;3097;42.692;23.278;2023-04-20T02:03:36;94616.84;;;10.54;84.08
6132;BME280;3097;42.692;23.278;2023-04-20T02:06:02;94611.97;;;10.52;84.13
6132;BME280;3097;42.692;23.278;2023-04-20T02:08:27;94589.34;;;10.42;83.70
6132;BME280;3097;42.692;23.278;2023-04-20T02:10:53;94608.25;;;10.60;83.78
6132;BME280;3097;42.692;23.278;2023-04-20T02:13:18;94614.72;;;10.62;83.82
6132;BME280;3097;42.692;23.278;2023-04-20T02:15:43;94602.88;;;10.50;84.09
6132;BME280;3097;42.692;23.278;2023-04-20T02:18:09;94612.84;;;10.58;83.94
6132;BME280;3097;42.692;23.278;2023-04-20T02:20:34;94610.47;;;10.56;84.02
6132;BME280;3097;42.692;23.278;2023-04-20T02:23:00;94582.84;;;10.28;83.81
6132;BME280;3097;42.692;23.278;2023-04-20T02:25:25;94617.56;;;10.49;84.16
6132;BME280;3097;42.692;23.278;2023-04-20T02:27:51;94609.81;;;10.49;84.14
6132;BME280;3097;42.692;23.278;2023-04-20T02:30:16;94612.41;;;10.49;83.87
6132;BME280;3097;42.692;23.278;2023-04-20T02:32:42;94588.09;;;10.33;84.36
6132;BME280;3097;42.692;23.278;2023-04-20T02:35:08;94605.75;;;10.53;84.11
6132;BME280;3097;42.692;23.278;2023-04-20T02:37:33;94580.06;;;10.30;83.89
6132;BME280;3097;42.692;23.278;2023-04-20T02:39:59;94562.81;;;10.19;83.80
6132;BME280;3097;42.692;23.278;2023-04-20T02:42:24;94585.75;;;10.32;84.30
6132;BME280;3097;42.692;23.278;2023-04-20T02:44:50;94610.81;;;10.48;84.34
6132;BME280;3097;42.692;23.278;2023-04-20T02:47:17;94615.28;;;10.53;84.24
6132;BME280;3097;42.692;23.278;2023-04-20T02:49:42;94582.50;;;10.36;83.85
6132;BME280;3097;42.692;23.278;2023-04-20T02:52:08;94610.81;;;10.60;83.73
6132;BME280;3097;42.692;23.278;2023-04-20T02:54:33;94602.97;;;10.55;84.03
6132;BME280;3097;42.692;23.278;2023-04-20T02:56:59;94610.47;;;10.56;84.42
6132;BME280;3097;42.692;23.278;2023-04-20T02:59:24;94611.56;;;10.60;84.34
6132;BME280;3097;42.692;23.278;2023-04-20T03:01:51;94614.59;;;10.69;83.91
6132;BME280;3097;42.692;23.278;2023-04-20T03:04:16;94608.13;;;10.66;83.76
6132;BME280;3097;42.692;23.278;2023-04-20T03:06:42;94602.06;;;10.61;83.71
6132;BME280;3097;42.692;23.278;2023-04-20T03:09:07;94611.47;;;10.67;83.26
6132;BME280;3097;42.692;23.278;2023-04-20T03:11:33;94615.97;;;10.60;83.27
6132;BME280;3097;42.692;23.278;2023-04-20T03:13:59;94612.47;;;10.66;83.29
6132;BME280;3097;42.692;23.278;2023-04-20T03:16:24;94606.75;;;10.64;83.26
6132;BME280;3097;42.692;23.278;2023-04-20T03:18:50;94600.03;;;10.63;82.76
6132;BME280;3097;42.692;23.278;2023-04-20T03:21:15;94600.03;;;10.63;82.79
6132;BME280;3097;42.692;23.278;2023-04-20T03:23:41;94613.03;;;10.68;82.61
6132;BME280;3097;42.692;23.278;2023-04-20T03:26:06;94616.50;;;10.73;82.58
6132;BME280;3097;42.692;23.278;2023-04-20T03:28:32;94574.31;;;10.39;82.51
6132;BME280;3097;42.692;23.278;2023-04-20T03:30:57;94622.44;;;10.74;82.28
6132;BME280;3097;42.692;23.278;2023-04-20T03:33:22;94613.59;;;10.70;82.26
6132;BME280;3097;42.692;23.278;2023-04-20T03:35:48;94610.91;;;10.65;82.35
6132;BME280;3097;42.692;23.278;2023-04-20T03:38:13;94620.31;;;10.71;81.83
6132;BME280;3097;42.692;23.278;2023-04-20T03:40:39;94616.28;;;10.63;81.92
6132;BME280;3097;42.692;23.278;2023-04-20T03:43:04;94617.72;;;10.71;82.20
6132;BME280;3097;42.692;23.278;2023-04-20T03:45:32;94594.78;;;10.58;81.97
6132;BME280;3097;42.692;23.278;2023-04-20T03:47:59;94604.31;;;10.57;82.32
6132;BME280;3097;42.692;23.278;2023-04-20T03:50:24;94616.16;;;10.70;82.31
6132;BME280;3097;42.692;23.278;2023-04-20T03:52:50;94613.94;;;10.62;82.57
6132;BME280;3097;42.692;23.278;2023-04-20T03:55:15;94617.28;;;10.74;82.53
6132;BME280;3097;42.692;23.278;2023-04-20T03:57:41;94615.16;;;10.71;82.48
6132;BME280;3097;42.692;23.278;2023-04-20T04:00:06;94613.69;;;10.75;82.56
6132;BME280;3097;42.692;23.278;2023-04-20T04:02:34;94621.66;;;10.73;82.23
6132;BME280;3097;42.692;23.278;2023-04-20T04:05:00;94622.19;;;10.75;82.45
6132;BME280;3097;42.692;23.278;2023-04-20T04:07:25;94619.38;;;10.77;82.57
6132;BME280;3097;42.692;23.278;2023-04-20T04:09:51;94625.44;;;10.82;82.81
6132;BME280;3097;42.692;23.278;2023-04-20T04:12:16;94623.19;;;10.86;82.75
6132;BME280;3097;42.692;23.278;2023-04-20T04:14:42;94630.91;;;10.86;82.36
6132;BME280;3097;42.692;23.278;2023-04-20T04:17:07;94616.59;;;10.78;82.43
6132;BME280;3097;42.692;23.278;2023-04-20T04:19:33;94587.72;;;10.65;82.04
6132;BME280;3097;42.692;23.278;2023-04-20T04:21:58;94632.59;;;10.92;82.10
6132;BME280;3097;42.692;23.278;2023-04-20T04:24:23;94629.22;;;10.92;82.09
6132;BME280;3097;42.692;23.278;2023-04-20T04:26:49;94617.94;;;10.81;81.99
6132;BME280;3097;42.692;23.278;2023-04-20T04:29:16;94625.31;;;10.89;82.16
6132;BME280;3097;42.692;23.278;2023-04-20T04:31:43;94627.66;;;10.91;81.65
6132;BME280;3097;42.692;23.278;2023-04-20T04:34:08;94625.97;;;10.96;82.30
6132;BME280;3097;42.692;23.278;2023-04-20T04:36:34;94635.81;;;10.99;81.27
6132;BME280;3097;42.692;23.278;2023-04-20T04:39:00;94585.22;;;10.70;80.00
6132;BME280;3097;42.692;23.278;2023-04-20T04:41:26;94638.22;;;10.89;80.58
6132;BME280;3097;42.692;23.278;2023-04-20T04:43:51;94643.91;;;10.91;80.85
6132;BME280;3097;42.692;23.278;2023-04-20T04:46:17;94643.09;;;11.02;80.66
6132;BME280;3097;42.692;23.278;2023-04-20T04:48:42;94635.94;;;10.93;80.85
6132;BME280;3097;42.692;23.278;2023-04-20T04:51:10;94648.41;;;10.96;81.15
6132;BME280;3097;42.692;23.278;2023-04-20T04:53:36;94641.75;;;11.00;80.92
6132;BME280;3097;42.692;23.278;2023-04-20T04:56:03;94630.69;;;10.88;80.88
6132;BME280;3097;42.692;23.278;2023-04-20T04:58:29;94654.28;;;11.08;80.91
6132;BME280;3097;42.692;23.278;2023-04-20T05:00:55;94648.22;;;11.14;80.33
6132;BME280;3097;42.692;23.278;2023-04-20T05:03:20;94653.72;;;11.06;80.43
6132;BME280;3097;42.692;23.278;2023-04-20T05:05:46;94649.13;;;11.08;80.59
6132;BME280;3097;42.692;23.278;2023-04-20T05:08:11;94650.50;;;10.99;80.66
6132;BME280;3097;42.692;23.278;2023-04-20T05:10:37;94643.47;;;10.94;80.38
6132;BME280;3097;42.692;23.278;2023-04-20T05:13:02;94657.00;;;11.01;80.74
6132;BME280;3097;42.692;23.278;2023-04-20T05:15:27;94657.56;;;11.03;80.86
6132;BME280;3097;42.692;23.278;2023-04-20T05:17:53;94655.22;;;11.02;81.13
6132;BME280;3097;42.692;23.278;2023-04-20T05:20:18;94657.44;;;11.10;81.08
6132;BME280;3097;42.692;23.278;2023-04-20T05:22:45;94658.22;;;11.10;81.17
6132;BME280;3097;42.692;23.278;2023-04-20T05:25:10;94665.25;;;11.15;80.63
6132;BME280;3097;42.692;23.278;2023-04-20T05:27:36;94626.50;;;10.98;80.93
6132;BME280;3097;42.692;23.278;2023-04-20T05:30:01;94669.06;;;11.24;80.74
6132;BME280;3097;42.692;23.278;2023-04-20T05:32:27;94664.69;;;11.24;80.87
6132;BME280;3097;42.692;23.278;2023-04-20T05:34:52;94648.75;;;11.28;80.61
6132;BME280;3097;42.692;23.278;2023-04-20T05:37:18;94671.13;;;11.39;80.37
6132;BME280;3097;42.692;23.278;2023-04-20T05:39:43;94663.31;;;11.34;79.90
6132;BME280;3097;42.692;23.278;2023-04-20T05:42:09;94675.50;;;11.38;79.30
6132;BME280;3097;42.692;23.278;2023-04-20T05:44:34;94671.81;;;11.34;79.79
6132;BME280;3097;42.692;23.278;2023-04-20T05:47:01;94674.50;;;11.39;79.94
6132;BME280;3097;42.692;23.278;2023-04-20T05:49:26;94664.97;;;11.28;79.76
6132;BME280;3097;42.692;23.278;2023-04-20T05:51:52;94669.50;;;11.21;80.78
6132;BME280;3097;42.692;23.278;2023-04-20T05:54:17;94655.28;;;11.18;81.49
6132;BME280;3097;42.692;23.278;2023-04-20T05:56:43;94666.56;;;11.29;82.44
6132;BME280;3097;42.692;23.278;2023-04-20T05:59:08;94663.88;;;11.24;83.10
6132;BME280;3097;42.692;23.278;2023-04-20T06:01:34;94673.50;;;11.29;84.05
6132;BME280;3097;42.692;23.278;2023-04-20T06:03:59;94667.91;;;11.32;83.92
6132;BME280;3097;42.692;23.278;2023-04-20T06:06:25;94660.31;;;11.25;84.73
6132;BME280;3097;42.692;23.278;2023-04-20T06:08:50;94648.81;;;11.33;84.67
6132;BME280;3097;42.692;23.278;2023-04-20T06:11:17;94665.50;;;11.42;84.20
6132;BME280;3097;42.692;23.278;2023-04-20T06:13:42;94619.69;;;11.20;84.08
6132;BME280;3097;42.692;23.278;2023-04-20T06:16:08;94672.09;;;11.49;84.24
6132;BME280;3097;42.692;23.278;2023-04-20T06:18:35;94667.47;;;11.51;84.04
6132;BME280;3097;42.692;23.278;2023-04-20T06:21:02;94670.94;;;11.57;84.10
6132;BME280;3097;42.692;23.278;2023-04-20T06:23:28;94608.63;;;11.20;83.87
6132;BME280;3097;42.692;23.278;2023-04-20T06:25:53;94648.09;;;11.49;83.21
6132;BME280;3097;42.692;23.278;2023-04-20T06:28:18;94662.41;;;11.56;83.36
6132;BME280;3097;42.692;23.278;2023-04-20T06:30:44;94664.38;;;11.66;83.23
6132;BME280;3097;42.692;23.278;2023-04-20T06:33:09;94647.06;;;11.50;83.42
6132;BME280;3097;42.692;23.278;2023-04-20T06:35:41;94679.84;;;11.66;82.73
6132;BME280;3097;42.692;23.278;2023-04-20T06:38:06;94656.13;;;11.52;83.00
6132;BME280;3097;42.692;23.278;2023-04-20T06:40:32;94683.00;;;11.68;82.89
6132;BME280;3097;42.692;23.278;2023-04-20T06:42:57;94688.38;;;11.67;82.00
6132;BME280;3097;42.692;23.278;2023-04-20T06:45:22;94687.44;;;11.56;82.35
6132;BME280;3097;42.692;23.278;2023-04-20T06:47:48;94690.56;;;11.58;83.06
6132;BME280;3097;42.692;23.278;2023-04-20T06:50:13;94685.41;;;11.58;84.12
6132;BME280;3097;42.692;23.278;2023-04-20T06:52:39;94682.09;;;11.46;84.79
6132;BME280;3097;42.692;23.278;2023-04-20T06:55:05;94690.56;;;11.58;84.09
6132;BME280;3097;42.692;23.278;2023-04-20T06:57:31;94694.91;;;11.41;84.84
6132;BME280;3097;42.692;23.278;2023-04-20T06:59:56;94697.38;;;11.36;86.04
6132;BME280;3097;42.692;23.278;2023-04-20T07:02:23;94689.88;;;11.34;87.23
6132;BME280;3097;42.692;23.278;2023-04-20T07:04:49;94692.88;;;11.43;87.64
6132;BME280;3097;42.692;23.278;2023-04-20T07:07:14;94695.56;;;11.48;87.14
6132;BME280;3097;42.692;23.278;2023-04-20T07:09:40;94705.97;;;11.53;85.52
6132;BME280;3097;42.692;23.278;2023-04-20T07:12:05;94703.97;;;11.43;86.02
6132;BME280;3097;42.692;23.278;2023-04-20T07:14:31;94705.09;;;11.47;86.77
6132;BME280;3097;42.692;23.278;2023-04-20T07:16:56;94696.84;;;11.62;87.22
6132;BME280;3097;42.692;23.278;2023-04-20T07:19:21;94700.50;;;11.78;87.46
6132;BME280;3097;42.692;23.278;2023-04-20T07:21:47;94705.38;;;11.91;88.16
6132;BME280;3097;42.692;23.278;2023-04-20T07:24:13;94688.63;;;11.93;86.52
6132;BME280;3097;42.692;23.278;2023-04-20T07:26:38;94700.06;;;12.14;85.55
6132;BME280;3097;42.692;23.278;2023-04-20T07:29:03;94642.22;;;11.98;84.89
6132;BME280;3097;42.692;23.278;2023-04-20T07:31:29;94700.28;;;12.46;83.83
6132;BME280;3097;42.692;23.278;2023-04-20T07:33:55;94695.28;;;12.78;85.12
6132;BME280;3097;42.692;23.278;2023-04-20T07:36:20;94653.47;;;12.64;83.27
6132;BME280;3097;42.692;23.278;2023-04-20T07:38:47;94693.81;;;13.04;82.43
6132;BME280;3097;42.692;23.278;2023-04-20T07:41:14;94694.50;;;13.16;81.37
6132;BME280;3097;42.692;23.278;2023-04-20T07:43:40;94693.22;;;13.40;79.22
6132;BME280;3097;42.692;23.278;2023-04-20T07:46:05;94697.69;;;13.45;76.76
6132;BME280;3097;42.692;23.278;2023-04-20T07:48:34;94705.34;;;13.62;77.81
6132;BME280;3097;42.692;23.278;2023-04-20T07:51:00;94704.38;;;13.94;75.98
6132;BME280;3097;42.692;23.278;2023-04-20T07:53:26;94684.91;;;14.19;76.55
6132;BME280;3097;42.692;23.278;2023-04-20T07:55:52;94699.50;;;14.67;74.70
6132;BME280;3097;42.692;23.278;2023-04-20T07:58:17;94695.97;;;14.83;72.96
6132;BME280;3097;42.692;23.278;2023-04-20T08:00:44;94694.16;;;14.79;74.27
6132;BME280;3097;42.692;23.278;2023-04-20T08:03:10;94693.22;;;15.05;74.05
6132;BME280;3097;42.692;23.278;2023-04-20T08:05:37;94697.44;;;15.21;70.79
6132;BME280;3097;42.692;23.278;2023-04-20T08:08:02;94699.31;;;15.26;71.57
6132;BME280;3097;42.692;23.278;2023-04-20T08:10:28;94706.81;;;15.27;69.96
6132;BME280;3097;42.692;23.278;2023-04-20T08:12:53;94701.91;;;15.26;69.61
6132;BME280;3097;42.692;23.278;2023-04-20T08:15:19;94711.66;;;15.03;68.66
6132;BME280;3097;42.692;23.278;2023-04-20T08:17:44;94710.34;;;14.59;70.35
6132;BME280;3097;42.692;23.278;2023-04-20T08:20:10;94706.59;;;14.40;71.93
6132;BME280;3097;42.692;23.278;2023-04-20T08:22:36;94711.03;;;14.44;72.25
6132;BME280;3097;42.692;23.278;2023-04-20T08:25:02;94709.44;;;14.38;70.32
6132;BME280;3097;42.692;23.278;2023-04-20T08:27:28;94706.13;;;14.16;71.94
6132;BME280;3097;42.692;23.278;2023-04-20T08:29:54;94705.44;;;13.99;72.57
6132;BME280;3097;42.692;23.278;2023-04-20T08:32:20;94709.28;;;13.91;72.26
6132;BME280;3097;42.692;23.278;2023-04-20T08:34:48;94711.38;;;13.94;72.77
6132;BME280;3097;42.692;23.278;2023-04-20T08:37:14;94719.59;;;13.86;73.78
6132;BME280;3097;42.692;23.278;2023-04-20T08:39:39;94686.66;;;13.81;73.56
6132;BME280;3097;42.692;23.278;2023-04-20T08:42:04;94710.97;;;14.07;71.95
6132;BME280;3097;42.692;23.278;2023-04-20T08:44:30;94713.38;;;13.87;72.29
6132;BME280;3097;42.692;23.278;2023-04-20T08:46:56;94682.31;;;13.60;73.38
6132;BME280;3097;42.692;23.278;2023-04-20T08:49:21;94709.03;;;13.66;73.14
6132;BME280;3097;42.692;23.278;2023-04-20T08:51:47;94705.75;;;13.48;73.08
6132;BME280;3097;42.692;23.278;2023-04-20T08:54:13;94712.88;;;13.36;75.20
6132;BME280;3097;42.692;23.278;2023-04-20T08:56:41;94709.25;;;13.37;75.31
6132;BME280;3097;42.692;23.278;2023-04-20T08:59:07;94706.25;;;13.45;74.87
6132;BME280;3097;42.692;23.278;2023-04-20T09:01:36;94695.03;;;13.40;75.31
6132;BME280;3097;42.692;23.278;2023-04-20T09:04:02;94699.31;;;13.51;74.92
6132;BME280;3097;42.692;23.278;2023-04-20T09:06:42;94707.13;;;13.56;74.87
6132;BME280;3097;42.692;23.278;2023-04-20T09:09:11;94708.44;;;13.59;73.58
6132;BME280;3097;42.692;23.278;2023-04-20T09:11:37;94701.53;;;13.42;72.17
6132;BME280;3097;42.692;23.278;2023-04-20T09:14:04;94718.06;;;13.36;73.65
6132;BME280;3097;42.692;23.278;2023-04-20T09:16:31;94715.75;;;13.40;74.21
6132;BME280;3097;42.692;23.278;2023-04-20T09:18:57;94717.38;;;13.46;73.22
6132;BME280;3097;42.692;23.278;2023-04-20T09:21:25;94710.16;;;13.48;74.04
6132;BME280;3097;42.692;23.278;2023-04-20T09:24:04;94690.00;;;13.55;74.34
6132;BME280;3097;42.692;23.278;2023-04-20T09:26:33;94704.25;;;13.79;73.46
6132;BME280;3097;42.692;23.278;2023-04-20T09:29:01;94693.81;;;14.01;73.61
6132;BME280;3097;42.692;23.278;2023-04-20T09:31:27;94694.50;;;14.23;73.29
6132;BME280;3097;42.692;23.278;2023-04-20T09:34:05;94692.72;;;14.29;73.71
6132;BME280;3097;42.692;23.278;2023-04-20T09:39:17;94689.19;;;14.72;71.11
6132;BME280;3097;42.692;23.278;2023-04-20T09:41:43;94692.63;;;14.88;71.07
6132;BME280;3097;42.692;23.278;2023-04-20T09:44:10;94685.66;;;14.98;69.38
6132;BME280;3097;42.692;23.278;2023-04-20T09:46:37;94672.16;;;14.96;70.36
6132;BME280;3097;42.692;23.278;2023-04-20T09:49:05;94686.22;;;15.05;68.30
6132;BME280;3097;42.692;23.278;2023-04-20T09:51:32;94670.63;;;14.95;69.92
6132;BME280;3097;42.692;23.278;2023-04-20T09:54:00;94673.25;;;15.05;68.99
6132;BME280;3097;42.692;23.278;2023-04-20T09:56:27;94683.63;;;15.05;70.04
6132;BME280;3097;42.692;23.278;2023-04-20T09:58:53;94676.38;;;15.13;69.28
6132;BME280;3097;42.692;23.278;2023-04-20T10:01:20;94636.56;;;14.87;69.38
6132;BME280;3097;42.692;23.278;2023-04-20T10:03:46;94678.44;;;15.05;69.22
6132;BME280;3097;42.692;23.278;2023-04-20T10:06:26;94652.41;;;14.90;69.47
6132;BME280;3097;42.692;23.278;2023-04-20T10:08:53;94664.41;;;15.06;71.12
6132;BME280;3097;42.692;23.278;2023-04-20T10:11:35;94665.22;;;15.12;70.57
6132;BME280;3097;42.692;23.278;2023-04-20T10:14:28;94667.13;;;15.32;68.25
6132;BME280;3097;42.692;23.278;2023-04-20T10:17:03;94648.94;;;15.32;69.02
6132;BME280;3097;42.692;23.278;2023-04-20T10:19:55;94665.41;;;15.63;67.02
6132;BME280;3097;42.692;23.278;2023-04-20T10:22:30;94644.88;;;15.66;67.46
6132;BME280;3097;42.692;23.278;2023-04-20T10:25:00;94663.09;;;15.97;68.48
6132;BME280;3097;42.692;23.278;2023-04-20T10:27:26;94667.25;;;16.18;66.99
6132;BME280;3097;42.692;23.278;2023-04-20T10:29:52;94668.03;;;16.34;64.64
6132;BME280;3097;42.692;23.278;2023-04-20T10:34:48;94637.09;;;16.27;66.18
6132;BME280;3097;42.692;23.278;2023-04-20T10:37:24;94664.13;;;16.41;61.88
6132;BME280;3097;42.692;23.278;2023-04-20T10:39:49;94660.22;;;16.18;62.48
6132;BME280;3097;42.692;23.278;2023-04-20T10:42:15;94657.38;;;15.95;64.64
6132;BME280;3097;42.692;23.278;2023-04-20T10:45:06;94649.59;;;15.84;66.22
6132;BME280;3097;42.692;23.278;2023-04-20T10:47:32;94648.78;;;15.74;66.77
6132;BME280;3097;42.692;23.278;2023-04-20T10:50:08;94596.50;;;15.40;65.47
6132;BME280;3097;42.692;23.278;2023-04-20T10:52:35;94656.31;;;15.70;67.29
6132;BME280;3097;42.692;23.278;2023-04-20T10:55:01;94660.47;;;15.76;65.59
6132;BME280;3097;42.692;23.278;2023-04-20T10:57:28;94648.53;;;15.85;67.90
6132;BME280;3097;42.692;23.278;2023-04-20T10:59:53;94637.63;;;15.99;69.58
6132;BME280;3097;42.692;23.278;2023-04-20T11:02:18;94653.97;;;16.24;66.88
6132;BME280;3097;42.692;23.278;2023-04-20T11:04:44;94651.13;;;16.36;65.24
6132;BME280;3097;42.692;23.278;2023-04-20T11:07:12;94652.19;;;16.30;65.51
6132;BME280;3097;42.692;23.278;2023-04-20T11:09:38;94640.19;;;16.34;66.09
6132;BME280;3097;42.692;23.278;2023-04-20T11:12:05;94619.16;;;16.31;63.49
6132;BME280;3097;42.692;23.278;2023-04-20T11:14:32;94640.97;;;16.40;65.22
6132;BME280;3097;42.692;23.278;2023-04-20T11:16:59;94633.41;;;16.58;66.47
6132;BME280;3097;42.692;23.278;2023-04-20T11:19:26;94631.78;;;16.78;65.69
6132;BME280;3097;42.692;23.278;2023-04-20T11:21:52;94622.38;;;16.92;64.64
6132;BME280;3097;42.692;23.278;2023-04-20T11:24:18;94625.19;;;17.00;65.57
6132;BME280;3097;42.692;23.278;2023-04-20T11:26:44;94620.16;;;17.24;64.57
6132;BME280;3097;42.692;23.278;2023-04-20T11:29:10;94621.09;;;17.44;64.26
6132;BME280;3097;42.692;23.278;2023-04-20T11:31:36;94630.41;;;17.55;61.21
6132;BME280;3097;42.692;23.278;2023-04-20T11:34:02;94616.84;;;17.58;59.64
6132;BME280;3097;42.692;23.278;2023-04-20T11:36:28;94625.22;;;17.50;58.55
6132;BME280;3097;42.692;23.278;2023-04-20T11:39:05;94617.63;;;17.58;60.89
6132;BME280;3097;42.692;23.278;2023-04-20T11:41:31;94623.03;;;17.67;62.26
6132;BME280;3097;42.692;23.278;2023-04-20T11:43:56;94628.19;;;17.77;58.71
6132;BME280;3097;42.692;23.278;2023-04-20T11:46:22;94623.03;;;17.67;57.66
6132;BME280;3097;42.692;23.278;2023-04-20T11:48:48;94622.53;;;17.60;58.81
6132;BME280;3097;42.692;23.278;2023-04-20T11:51:14;94617.16;;;17.46;59.17
6132;BME280;3097;42.692;23.278;2023-04-20T11:53:40;94603.38;;;17.40;60.50
6132;BME280;3097;42.692;23.278;2023-04-20T11:56:06;94564.97;;;17.17;60.81
6132;BME280;3097;42.692;23.278;2023-04-20T11:58:32;94585.50;;;17.29;59.74
6132;BME280;3097;42.692;23.278;2023-04-20T12:00:58;94616.06;;;17.13;59.65
6132;BME280;3097;42.692;23.278;2023-04-20T12:03:24;94614.06;;;16.85;61.69
6132;BME280;3097;42.692;23.278;2023-04-20T12:05:50;94616.69;;;16.80;62.22
6132;BME280;3097;42.692;23.278;2023-04-20T12:08:15;94629.47;;;16.71;61.95
6132;BME280;3097;42.692;23.278;2023-04-20T12:10:41;94629.53;;;16.46;63.04
6132;BME280;3097;42.692;23.278;2023-04-20T12:13:10;94637.38;;;16.00;66.79
6132;BME280;3097;42.692;23.278;2023-04-20T12:15:35;94631.63;;;15.83;67.53
6132;BME280;3097;42.692;23.278;2023-04-20T12:18:00;94632.34;;;15.48;69.40
6132;BME280;3097;42.692;23.278;2023-04-20T12:20:26;94626.63;;;15.41;68.24
6132;BME280;3097;42.692;23.278;2023-04-20T12:22:51;94624.53;;;15.33;67.20
6132;BME280;3097;42.692;23.278;2023-04-20T12:25:17;94630.97;;;15.20;68.09
6132;BME280;3097;42.692;23.278;2023-04-20T12:27:42;94623.47;;;15.24;68.46
6132;BME280;3097;42.692;23.278;2023-04-20T12:30:08;94615.13;;;15.17;67.71
6132;BME280;3097;42.692;23.278;2023-04-20T12:32:34;94609.91;;;15.11;68.79
6132;BME280;3097;42.692;23.278;2023-04-20T12:34:59;94606.03;;;15.14;69.22
6132;BME280;3097;42.692;23.278;2023-04-20T12:37:25;94604.75;;;15.22;67.62
6132;BME280;3097;42.692;23.278;2023-04-20T12:39:51;94595.44;;;15.36;68.94
6132;BME280;3097;42.692;23.278;2023-04-20T12:42:17;94549.69;;;15.20;68.32
6132;BME280;3097;42.692;23.278;2023-04-20T12:44:42;94566.88;;;15.51;66.03
6132;BME280;3097;42.692;23.278;2023-04-20T12:47:08;94589.00;;;15.99;65.55
6132;BME280;3097;42.692;23.278;2023-04-20T12:49:33;94594.97;;;16.20;66.76
6132;BME280;3097;42.692;23.278;2023-04-20T12:51:59;94593.88;;;16.46;63.01
6132;BME280;3097;42.692;23.278;2023-04-20T12:54:24;94589.97;;;16.44;64.11
6132;BME280;3097;42.692;23.278;2023-04-20T12:56:50;94561.09;;;16.45;63.96
6132;BME280;3097;42.692;23.278;2023-04-20T12:59:18;94586.03;;;16.61;62.85
6132;BME280;3097;42.692;23.278;2023-04-20T13:01:44;94573.28;;;16.60;62.22
6132;BME280;3097;42.692;23.278;2023-04-20T13:04:09;94588.09;;;16.70;63.50
6132;BME280;3097;42.692;23.278;2023-04-20T13:06:35;94591.97;;;16.82;62.14
6132;BME280;3097;42.692;23.278;2023-04-20T13:09:00;94587.00;;;16.86;62.35
6132;BME280;3097;42.692;23.278;2023-04-20T13:11:28;94586.69;;;16.97;63.23